Time;durP1;ratioP1;P1;durP2;ratioP2;P2;SDS_P1;SDS_P2;PMS_P1;PMS_P2;Temp;Humidity;BMP_temperature;BMP_pressure;BME280_temperature;BME280_humidity;BME280_pressure;Samples;Min_cycle;Max_cycle;Signal;HPM_P1;HPM_P2
2021/06/15 00:00:29;;;;;;;12.18;4.47;;;17.00;99.90;;;-145.59;100.00;63944.34;5098635;28;20063;-70
2021/06/15 00:02:54;;;;;;;8.15;3.80;;;16.90;99.90;;;-145.59;100.00;63944.34;5099261;28;20050;-70
2021/06/15 00:05:21;;;;;;;7.82;4.38;;;16.90;99.90;;;-145.59;100.00;63944.34;5065351;28;20192;-75
2021/06/15 00:07:47;;;;;;;10.50;4.13;;;16.90;99.90;;;-145.59;100.00;63944.34;5098813;28;20039;-72
2021/06/15 00:10:18;;;;;;;10.77;3.80;;;16.90;99.90;;;-145.59;100.00;63944.34;5082005;28;20039;-73
2021/06/15 00:12:44;;;;;;;15.75;4.82;;;16.80;99.90;;;-145.59;100.00;63944.34;5099233;28;20373;-71
2021/06/15 00:15:15;;;;;;;8.02;3.70;;;16.80;99.90;;;-145.59;100.00;63944.34;5099090;28;20040;-73
2021/06/15 00:17:51;;;;;;;16.27;4.78;;;16.80;99.90;;;-145.59;100.00;63944.34;5115829;28;20092;-72
2021/06/15 00:20:18;;;;;;;11.02;4.47;;;16.80;99.90;;;-145.59;100.00;63944.34;5100195;28;20038;-71
2021/06/15 00:22:44;;;;;;;8.05;5.38;;;16.80;99.90;;;-145.59;100.00;63944.34;5081416;28;20124;-73
2021/06/15 00:25:12;;;;;;;9.98;4.32;;;16.80;99.90;;;-145.59;100.00;63944.34;5098614;28;20486;-71
2021/06/15 00:27:39;;;;;;;9.13;3.30;;;16.80;99.90;;;-145.59;100.00;63944.34;5098496;28;20035;-73
2021/06/15 00:30:08;;;;;;;7.00;3.80;;;16.80;99.90;;;-145.59;100.00;63944.34;5064641;28;20036;-71
2021/06/15 00:32:35;;;;;;;9.50;3.65;;;16.80;99.90;;;-145.59;100.00;63944.34;5098614;28;20040;-72
2021/06/15 00:35:00;;;;;;;6.60;3.38;;;16.90;99.90;;;-145.59;100.00;63944.34;5081217;28;20080;-73
2021/06/15 00:37:26;;;;;;;10.18;3.70;;;16.90;99.90;;;-145.59;100.00;63944.34;5081294;28;20040;-73
2021/06/15 00:39:52;;;;;;;9.02;3.13;;;16.90;99.90;;;-145.59;100.00;63944.34;5064647;28;20032;-74
2021/06/15 00:42:18;;;;;;;7.18;2.78;;;16.90;99.90;;;-145.59;100.00;63944.34;5064457;28;20119;-74
2021/06/15 00:44:44;;;;;;;6.60;2.83;;;16.90;99.90;;;-145.59;100.00;63944.34;5097871;28;20024;-73
2021/06/15 00:47:11;;;;;;;6.38;2.40;;;16.90;99.90;;;-145.59;100.00;63944.34;5114869;28;20039;-72
2021/06/15 00:49:39;;;;;;;5.75;2.67;;;16.90;99.90;;;-145.59;100.00;63944.34;5116370;28;20032;-74
2021/06/15 00:52:05;;;;;;;6.03;2.38;;;16.90;99.90;;;-145.59;100.00;63944.34;5098181;28;20032;-72
2021/06/15 00:54:31;;;;;;;6.22;2.53;;;16.80;99.90;;;-145.59;100.00;63944.34;5081200;28;20566;-73
2021/06/15 00:56:57;;;;;;;7.03;2.42;;;16.80;99.90;;;-145.59;100.00;63944.34;5080854;28;20128;-73
2021/06/15 00:59:23;;;;;;;3.20;2.15;;;16.80;99.90;;;-145.59;100.00;63944.34;5097831;28;20374;-74
2021/06/15 01:05:36;;;;;;;7.65;3.10;;;16.80;99.90;;;-145.59;100.00;63944.34;5116370;28;20051;-73
2021/06/15 01:08:20;;;;;;;3.47;2.17;;;16.80;99.90;;;-145.59;100.00;63944.34;5096740;28;20054;-72
2021/06/15 01:11:13;;;;;;;9.65;2.47;;;16.80;99.90;;;-145.59;100.00;63944.34;5116204;28;20097;-72
2021/06/15 01:14:00;;;;;;;6.90;2.30;;;16.80;99.90;;;-145.59;100.00;63944.34;5115781;28;20038;-72
2021/06/15 01:16:44;;;;;;;6.00;2.58;;;16.70;99.90;;;-145.59;100.00;63944.34;5098880;28;20462;-74
2021/06/15 01:19:13;;;;;;;11.25;2.20;;;16.70;99.90;;;-145.59;100.00;63944.34;5098651;28;20059;-73
2021/06/15 01:21:56;;;;;;;4.43;2.10;;;16.80;99.90;;;-145.59;100.00;63944.34;5081096;28;20031;-73
2021/06/15 01:24:34;;;;;;;6.38;1.88;;;16.70;99.90;;;-145.59;100.00;63944.34;5098883;28;20028;-72
2021/06/15 01:27:37;;;;;;;3.72;2.15;;;16.70;99.90;;;-145.59;100.00;63944.34;5098720;28;20054;-74
2021/06/15 01:30:10;;;;;;;6.03;1.70;;;16.70;99.90;;;-145.59;100.00;63944.34;5115586;28;20058;-73
2021/06/15 01:32:37;;;;;;;10.20;2.42;;;16.70;99.90;;;-145.59;100.00;63944.34;5115310;28;20067;-73
2021/06/15 01:35:07;;;;;;;5.40;1.95;;;16.70;99.90;;;-145.59;100.00;63944.34;5097221;28;20116;-74
2021/06/15 01:37:40;;;;;;;5.97;2.05;;;16.80;99.90;;;-145.59;100.00;63944.34;5080426;28;20035;-73
2021/06/15 01:40:14;;;;;;;4.65;2.25;;;16.80;99.90;;;-145.59;100.00;63944.34;5097484;28;20066;-74
2021/06/15 01:42:47;;;;;;;8.10;2.10;;;16.80;99.90;;;-145.59;100.00;63944.34;5097477;28;20108;-72
2021/06/15 01:45:39;;;;;;;6.68;2.67;;;16.80;99.90;;;-145.59;100.00;63944.34;5097524;28;20027;-75
2021/06/15 01:48:33;;;;;;;9.23;2.00;;;16.70;99.90;;;-145.59;100.00;63944.34;5097410;28;20035;-74
2021/06/15 01:51:03;;;;;;;11.52;2.00;;;16.70;99.90;;;-145.59;100.00;63944.34;5116395;28;20032;-73
2021/06/15 01:53:31;;;;;;;4.95;1.77;;;16.70;99.90;;;-145.59;100.00;63944.34;5098149;28;20521;-73
2021/06/15 01:56:03;;;;;;;3.38;1.55;;;16.70;99.90;;;-145.59;100.00;63944.34;5097248;28;20049;-74
2021/06/15 01:58:33;;;;;;;4.32;1.25;;;16.70;99.90;;;-145.59;100.00;63944.34;5097395;28;20032;-73
2021/06/15 02:01:00;;;;;;;5.40;1.38;;;16.70;99.90;;;-145.59;100.00;63944.34;5115095;28;20031;-73
2021/06/15 02:03:28;;;;;;;4.45;1.38;;;16.60;99.90;;;-145.59;100.00;63944.34;5096995;28;20401;-72
2021/06/15 02:06:00;;;;;;;6.72;1.50;;;16.60;99.90;;;-145.59;100.00;63944.34;5115000;28;20116;-73
2021/06/15 02:08:41;;;;;;;3.67;1.00;;;16.60;99.90;;;-145.59;100.00;63944.34;5096765;28;20039;-72
2021/06/15 02:11:08;;;;;;;3.25;1.15;;;16.60;99.90;;;-145.59;100.00;63944.34;5097327;28;20123;-71
2021/06/15 02:13:45;;;;;;;9.40;1.95;;;16.50;99.90;;;-145.59;100.00;63944.34;5063073;28;20028;-71
2021/06/15 02:16:13;;;;;;;4.10;1.00;;;16.50;99.90;;;-145.59;100.00;63944.34;5080152;28;20044;-72
2021/06/15 02:18:45;;;;;;;9.70;1.75;;;16.40;99.90;;;-145.59;100.00;63944.34;5114511;28;20024;-73
2021/06/15 02:21:14;;;;;;;4.40;1.10;;;16.40;99.90;;;-145.59;100.00;63944.34;5096518;28;20084;-73
2021/06/15 02:23:44;;;;;;;3.53;1.55;;;16.40;99.90;;;-145.59;100.00;63944.34;5096482;28;20028;-73
2021/06/15 02:26:16;;;;;;;8.25;1.20;;;16.30;99.90;;;-145.59;100.00;63944.34;5096597;28;20098;-70
2021/06/15 02:28:43;;;;;;;5.55;1.20;;;16.30;99.90;;;-145.59;100.00;63944.34;5096545;28;20027;-72
2021/06/15 02:31:18;;;;;;;7.32;1.30;;;16.30;99.90;;;-145.59;100.00;63944.34;5114710;28;20032;-73
2021/06/15 02:33:53;;;;;;;10.13;1.38;;;16.30;99.90;;;-145.59;100.00;63944.34;5097918;28;20039;-75
2021/06/15 02:36:28;;;;;;;7.65;1.73;;;16.30;99.90;;;-145.59;100.00;63944.34;5096814;28;20043;-70
2021/06/15 02:39:02;;;;;;;5.18;1.45;;;16.40;99.90;;;-145.59;100.00;63944.34;5114379;28;20027;-71
2021/06/15 02:41:33;;;;;;;5.20;0.98;;;16.40;99.90;;;-145.59;100.00;63944.34;5079717;28;20397;-71
2021/06/15 02:44:02;;;;;;;3.53;1.20;;;16.40;99.90;;;-145.59;100.00;63944.34;5096231;28;20526;-70
2021/06/15 02:46:33;;;;;;;9.07;1.50;;;16.50;99.90;;;-145.59;100.00;63944.34;5079732;28;20486;-72
2021/06/15 02:49:06;;;;;;;4.45;1.13;;;16.50;99.90;;;-145.59;100.00;63944.34;5096427;28;20024;-73
2021/06/15 02:51:38;;;;;;;3.97;1.40;;;16.50;99.90;;;-145.59;100.00;63944.34;5098709;28;20073;-71
2021/06/15 02:54:25;;;;;;;7.95;1.02;;;16.50;99.90;;;-145.59;100.00;63944.34;5097112;28;20050;-73
2021/06/15 02:56:57;;;;;;;3.95;0.90;;;16.50;99.90;;;-145.59;100.00;63944.34;5113889;28;20098;-73
2021/06/15 02:59:23;;;;;;;6.13;1.05;;;16.50;99.90;;;-145.59;100.00;63944.34;5095979;28;20112;-73
2021/06/15 03:01:52;;;;;;;4.43;1.17;;;16.50;99.90;;;-145.59;100.00;63944.34;5096449;28;20035;-73
2021/06/15 03:04:18;;;;;;;3.70;0.80;;;16.50;99.90;;;-145.59;100.00;63944.34;5095949;28;20055;-71
2021/06/15 03:06:45;;;;;;;4.47;0.85;;;16.40;99.90;;;-145.59;100.00;63944.34;5095744;28;20440;-72
2021/06/15 03:09:13;;;;;;;4.93;0.88;;;16.40;99.90;;;-145.59;100.00;63944.34;5078818;28;20026;-72
2021/06/15 03:11:50;;;;;;;2.72;0.70;;;16.30;99.90;;;-145.59;100.00;63944.34;5078860;28;20032;-72
2021/06/15 03:14:22;;;;;;;1.40;0.50;;;16.20;99.90;;;-145.59;100.00;63944.34;5096023;28;20031;-73
2021/06/15 03:16:53;;;;;;;4.10;1.30;;;16.10;99.90;;;-145.59;100.00;63944.34;5095496;28;20477;-73
2021/06/15 03:19:29;;;;;;;1.35;0.63;;;16.00;99.90;;;-145.59;100.00;63944.34;5095780;28;20036;-71
2021/06/15 03:22:19;;;;;;;5.90;0.80;;;16.00;99.90;;;-145.59;100.00;63944.34;5063843;28;20032;-73
2021/06/15 03:24:55;;;;;;;6.60;1.90;;;15.90;99.90;;;-145.59;100.00;63944.34;5096690;28;20059;-73
2021/06/15 03:27:37;;;;;;;2.08;0.70;;;15.80;99.90;;;-145.59;100.00;63944.34;5096529;28;20069;-72
2021/06/15 03:30:10;;;;;;;3.72;1.25;;;15.80;99.90;;;-145.59;100.00;63944.34;5113959;28;20027;-71
2021/06/15 03:32:52;;;;;;;4.07;1.00;;;15.70;99.90;;;-145.59;100.00;63944.34;5096343;28;20019;-72
2021/06/15 03:35:20;;;;;;;4.72;0.80;;;15.70;99.90;;;-145.59;100.00;63944.34;5085074;28;20364;-71
2021/06/15 03:37:58;;;;;;;2.58;0.90;;;15.70;99.90;;;-145.59;100.00;63944.34;5102782;28;20036;-71
2021/06/15 03:40:27;;;;;;;6.28;1.10;;;15.70;99.90;;;-145.59;100.00;63944.34;5100330;28;20115;-74
2021/06/15 03:42:54;;;;;;;3.42;0.88;;;15.70;99.90;;;-145.59;100.00;63944.34;5100468;28;20062;-71
2021/06/15 03:45:27;;;;;;;6.82;1.00;;;15.70;99.90;;;-145.59;100.00;63944.34;5099989;28;20474;-72
2021/06/15 03:47:55;;;;;;;5.45;1.05;;;15.80;99.90;;;-145.59;100.00;63944.34;5082694;28;20035;-71
2021/06/15 03:50:23;;;;;;;8.93;1.27;;;15.70;99.90;;;-145.59;100.00;63944.34;5099512;28;20024;-73
2021/06/15 03:52:55;;;;;;;3.55;1.00;;;15.80;99.90;;;-145.59;100.00;63944.34;5082513;28;20035;-70
2021/06/15 03:55:28;;;;;;;4.38;1.00;;;15.80;99.90;;;-145.59;100.00;63944.34;5099795;28;20390;-72
2021/06/15 03:57:55;;;;;;;15.77;2.25;;;15.90;99.90;;;-145.59;100.00;63944.34;5099797;28;20047;-71
2021/06/15 04:00:24;;;;;;;5.63;1.20;;;16.00;99.90;;;-145.59;100.00;63944.34;5099292;28;20032;-72
2021/06/15 04:02:55;;;;;;;4.13;0.90;;;16.00;99.90;;;-145.59;100.00;63944.34;5099995;28;20049;-72
2021/06/15 04:05:26;;;;;;;9.65;1.83;;;16.10;99.90;;;-145.59;100.00;63944.34;5117517;28;20084;-72
2021/06/15 04:07:53;;;;;;;4.82;1.17;;;16.10;99.90;;;-145.59;100.00;63944.34;5066840;28;20067;-72
2021/06/15 04:10:20;;;;;;;7.43;1.15;;;16.20;99.90;;;-145.59;100.00;63944.34;5099588;28;20055;-73
2021/06/15 04:12:47;;;;;;;8.32;1.52;;;16.20;99.90;;;-145.59;100.00;63944.34;5099058;28;20027;-72
2021/06/15 04:15:13;;;;;;;8.18;1.08;;;16.20;99.90;;;-145.59;100.00;63944.34;5082463;28;20036;-72
2021/06/15 04:17:47;;;;;;;6.97;1.00;;;16.30;99.90;;;-145.59;100.00;63944.34;5117525;28;20068;-71
2021/06/15 04:20:15;;;;;;;6.82;1.17;;;16.40;99.90;;;-145.59;100.00;63944.34;5118511;28;20035;-71
2021/06/15 04:22:47;;;;;;;2.85;0.90;;;16.40;99.90;;;-145.59;100.00;63944.34;5116166;28;20394;-71
2021/06/15 04:25:23;;;;;;;7.30;0.77;;;16.50;99.90;;;-145.59;100.00;63944.34;5082084;28;20063;-72
2021/06/15 04:27:49;;;;;;;5.20;1.05;;;16.60;99.90;;;-145.59;100.00;63944.34;5099067;28;20031;-72
2021/06/15 04:30:19;;;;;;;6.82;1.30;;;16.60;99.90;;;-145.59;100.00;63944.34;5099132;28;20493;-71
2021/06/15 04:32:59;;;;;;;7.80;1.23;;;16.70;99.90;;;-145.59;100.00;63944.34;5082264;28;20393;-70
2021/06/15 04:35:31;;;;;;;5.28;0.85;;;16.80;99.90;;;-145.59;100.00;63944.34;5098945;28;20055;-71
2021/06/15 04:38:02;;;;;;;8.30;1.88;;;16.80;99.90;;;-145.59;100.00;63944.34;5098713;28;20507;-73
2021/06/15 04:40:37;;;;;;;7.32;0.98;;;16.80;99.90;;;-145.59;100.00;63944.34;5098582;28;20027;-71
2021/06/15 04:43:45;;;;;;;5.00;1.17;;;16.80;99.90;;;-145.59;100.00;63944.34;5099483;28;20055;-74
2021/06/15 04:46:37;;;;;;;2.63;0.90;;;16.70;99.90;;;-145.59;100.00;63944.34;5098134;28;20478;-73
2021/06/15 04:49:55;;;;;;;5.60;0.90;;;16.70;99.90;;;-145.59;100.00;63944.34;5100491;28;20036;-74
2021/06/15 04:52:25;;;;;;;2.00;0.75;;;16.80;99.90;;;-145.59;100.00;63944.34;5064147;28;20039;-71
2021/06/15 04:54:52;;;;;;;4.65;1.10;;;16.80;99.90;;;-145.59;100.00;63944.34;5064479;28;20089;-73
2021/06/15 04:57:28;;;;;;;5.60;1.27;;;17.00;99.90;;;-145.59;100.00;63944.34;5064794;28;20451;-72
2021/06/15 04:59:59;;;;;;;5.25;1.10;;;17.10;99.90;;;-145.59;100.00;63944.34;5099024;28;20023;-74
2021/06/15 05:02:26;;;;;;;11.15;1.20;;;17.40;99.90;;;-145.59;100.00;63944.34;5082164;28;20038;-71
2021/06/15 05:04:53;;;;;;;3.80;1.13;;;17.70;99.90;;;-145.59;100.00;63944.34;5066420;28;20047;-72
2021/06/15 05:07:21;;;;;;;12.23;2.65;;;18.00;99.90;;;-145.59;100.00;63944.34;5098904;28;20035;-70
2021/06/15 05:09:54;;;;;;;5.10;1.95;;;18.50;99.90;;;-145.59;100.00;63944.34;5098011;28;20027;-72
2021/06/15 05:12:23;;;;;;;7.03;0.88;;;18.90;99.90;;;-145.59;100.00;63944.34;5098157;28;20046;-72
2021/06/15 05:14:50;;;;;;;6.53;1.52;;;19.10;99.90;;;-145.59;100.00;63944.34;5081230;28;20110;-71
2021/06/15 05:17:23;;;;;;;5.80;1.17;;;19.20;99.90;;;-145.59;100.00;63944.34;5098246;28;20523;-72
2021/06/15 05:19:49;;;;;;;10.13;0.80;;;19.10;99.90;;;-145.59;100.00;63944.34;5098560;28;20038;-71
2021/06/15 05:22:30;;;;;;;5.38;2.03;;;19.20;99.90;;;-145.59;100.00;63944.34;5099419;28;20039;-72
2021/06/15 05:25:00;;;;;;;5.63;1.00;;;19.20;99.90;;;-145.59;100.00;63944.34;5098631;28;20486;-73
2021/06/15 05:27:35;;;;;;;5.28;0.90;;;19.30;99.90;;;-145.59;100.00;63944.34;5097666;28;20042;-72
2021/06/15 05:30:05;;;;;;;5.53;1.25;;;19.70;99.90;;;-145.59;100.00;63944.34;5097801;28;20039;-72
2021/06/15 05:32:33;;;;;;;4.35;1.33;;;20.00;99.90;;;-145.59;100.00;63944.34;5098162;28;20493;-71
2021/06/15 05:35:00;;;;;;;6.28;1.58;;;20.40;99.80;;;-145.59;100.00;63944.34;5115627;28;20024;-71
2021/06/15 05:37:27;;;;;;;4.57;1.02;;;20.70;99.40;;;-145.59;100.00;63944.34;5115734;28;20027;-72
2021/06/15 05:39:55;;;;;;;6.10;1.33;;;21.00;99.00;;;-145.59;100.00;63944.34;5115719;28;20047;-70
2021/06/15 05:42:22;;;;;;;4.65;1.30;;;21.20;98.10;;;-145.59;100.00;63944.34;5097157;28;20081;-69
2021/06/15 05:44:48;;;;;;;4.32;0.90;;;21.20;97.80;;;-145.59;100.00;63944.34;5080370;28;20131;-68
2021/06/15 05:47:14;;;;;;;4.68;1.00;;;21.30;98.00;;;-145.59;100.00;63944.34;5081216;28;20529;-67
2021/06/15 05:49:39;;;;;;;5.53;0.90;;;21.60;97.50;;;-145.59;100.00;63944.34;5115637;28;20039;-69
2021/06/15 05:52:13;;;;;;;3.45;1.02;;;22.30;96.70;;;-145.59;100.00;63944.34;5096979;28;20043;-67
2021/06/15 05:54:40;;;;;;;4.07;1.00;;;22.90;95.80;;;-145.59;100.00;63944.34;5096918;28;20063;-70
2021/06/15 05:57:07;;;;;;;5.47;1.02;;;24.00;94.40;;;-145.59;100.00;63944.34;5096048;28;20551;-67
2021/06/15 05:59:34;;;;;;;2.63;0.95;;;25.00;92.40;;;-145.59;100.00;63944.34;5096684;28;20146;-68
2021/06/15 06:02:00;;;;;;;4.47;1.73;;;25.40;91.00;;;-145.59;100.00;63944.34;5114973;28;20034;-69
2021/06/15 06:04:28;;;;;;;3.20;1.15;;;25.40;90.10;;;-145.59;100.00;63944.34;5115293;28;20028;-69
2021/06/15 06:09:40;;;;;;;2.33;0.82;;;25.40;89.20;;;-145.59;100.00;63944.34;5099619;28;20042;-68
2021/06/15 06:12:08;;;;;;;6.72;1.25;;;25.60;87.70;;;-145.59;100.00;63944.34;5079779;28;20035;-68
2021/06/15 06:14:34;;;;;;;3.03;1.17;;;25.80;86.60;;;-145.59;100.00;63944.34;5114468;28;20440;-68
2021/06/15 06:17:01;;;;;;;7.32;1.27;;;25.70;86.20;;;-145.59;100.00;63944.34;5096278;28;20028;-68
2021/06/15 06:19:28;;;;;;;7.25;1.63;;;25.20;86.40;;;-145.59;100.00;63944.34;5096524;28;20035;-70
2021/06/15 06:21:55;;;;;;;5.57;1.00;;;24.70;87.20;;;-145.59;100.00;63944.34;5096695;28;20039;-69
2021/06/15 06:24:22;;;;;;;6.35;1.13;;;24.30;88.70;;;-145.59;100.00;63944.34;5079558;28;20126;-70
2021/06/15 06:26:50;;;;;;;8.07;2.20;;;24.10;88.60;;;-145.59;100.00;63944.34;5079783;28;20024;-68
2021/06/15 06:29:20;;;;;;;6.93;0.88;;;24.30;88.50;;;-145.59;100.00;63944.34;5096876;28;20421;-68
2021/06/15 06:31:47;;;;;;;5.13;1.60;;;24.40;88.50;;;-145.59;100.00;63944.34;5096965;28;20124;-70
2021/06/15 06:34:13;;;;;;;6.95;1.40;;;24.70;88.40;;;-145.59;100.00;63944.34;5096569;28;20071;-68
2021/06/15 06:36:39;;;;;;;4.53;1.38;;;24.90;87.60;;;-145.59;100.00;63944.34;5096459;28;20035;-74
2021/06/15 06:39:06;;;;;;;5.85;1.67;;;25.50;85.70;;;-145.59;100.00;63944.34;5096223;28;20063;-68
2021/06/15 06:41:33;;;;;;;5.75;1.50;;;25.40;85.30;;;-145.59;100.00;63944.34;5097283;28;20028;-67
2021/06/15 06:44:00;;;;;;;3.63;1.10;;;25.70;85.00;;;-145.59;100.00;63944.34;5113072;28;20497;-67
2021/06/15 06:46:26;;;;;;;5.55;1.20;;;26.20;83.40;;;-145.59;100.00;63944.34;5079296;28;20039;-69
2021/06/15 06:48:52;;;;;;;7.07;2.05;;;26.60;81.80;;;-145.59;100.00;63944.34;5114085;28;20036;-69
2021/06/15 06:51:19;;;;;;;6.38;1.38;;;26.50;82.10;;;-145.59;100.00;63944.34;5114519;28;20042;-67
2021/06/15 06:53:45;;;;;;;6.53;1.95;;;27.20;81.10;;;-145.59;100.00;63944.34;5114227;28;20031;-68
2021/06/15 06:56:11;;;;;;;8.77;1.35;;;27.60;79.80;;;-145.59;100.00;63944.34;5095802;28;20481;-69
2021/06/15 06:58:37;;;;;;;5.75;1.30;;;28.20;78.60;;;-145.59;100.00;63944.34;5092482;28;20498;-72
2021/06/15 07:01:04;;;;;;;9.45;1.35;;;28.80;77.80;;;-145.59;100.00;63944.34;5075885;28;20043;-71
2021/06/15 07:03:30;;;;;;;6.97;1.13;;;29.60;75.10;;;-145.59;100.00;63944.34;5092939;28;20067;-73
2021/06/15 07:05:56;;;;;;;5.47;1.65;;;30.20;73.40;;;-145.59;100.00;63944.34;5075950;28;20039;-71
2021/06/15 07:08:22;;;;;;;5.03;1.38;;;30.60;71.60;;;-145.59;100.00;63944.34;5092605;28;20032;-74
2021/06/15 07:10:48;;;;;;;3.38;1.10;;;31.30;70.30;;;-145.59;100.00;63944.34;5075866;28;20482;-73
2021/06/15 07:13:14;;;;;;;6.97;1.55;;;31.80;68.70;;;-145.59;100.00;63944.34;5075672;28;20032;-74
2021/06/15 07:15:40;;;;;;;5.28;1.70;;;32.30;66.50;;;-145.59;100.00;63944.34;5094165;28;20098;-71
2021/06/15 07:18:06;;;;;;;6.18;1.67;;;31.90;66.30;;;-145.59;100.00;63944.34;5092569;28;20032;-74
2021/06/15 07:20:32;;;;;;;4.32;1.30;;;31.60;66.00;;;-145.59;100.00;63944.34;5075575;28;20036;-72
2021/06/15 07:22:58;;;;;;;6.20;1.30;;;31.40;66.00;;;-145.59;100.00;63944.34;5075438;28;20032;-72
2021/06/15 07:25:24;;;;;;;4.03;0.82;;;31.40;65.70;;;-145.59;100.00;63944.34;5092145;28;20043;-72
2021/06/15 07:27:50;;;;;;;3.70;1.73;;;31.00;65.80;;;-145.59;100.00;63944.34;5093444;28;20490;-73
2021/06/15 07:30:17;;;;;;;4.30;1.40;;;30.30;66.80;;;-145.59;100.00;63944.34;5092429;28;20032;-72
2021/06/15 07:32:43;;;;;;;3.70;1.60;;;30.10;67.00;;;-145.59;100.00;63944.34;5074965;28;20486;-72
2021/06/15 07:35:09;;;;;;;4.95;1.38;;;29.20;68.20;;;-145.59;100.00;63944.34;5092373;28;20059;-72
2021/06/15 07:37:35;;;;;;;5.15;1.60;;;28.50;69.20;;;-145.59;100.00;63944.34;5091925;28;20494;-71
2021/06/15 07:40:01;;;;;;;8.10;1.70;;;28.10;70.30;;;-145.59;100.00;63944.34;5075444;28;20038;-72
2021/06/15 07:42:29;;;;;;;5.80;1.52;;;28.00;71.50;;;-145.59;100.00;63944.34;5109297;28;20097;-72
2021/06/15 07:44:55;;;;;;;6.30;1.45;;;28.40;70.30;;;-145.59;100.00;63944.34;5092648;28;20036;-73
2021/06/15 07:47:21;;;;;;;3.50;1.27;;;28.60;70.00;;;-145.59;100.00;63944.34;5092165;28;20051;-72
2021/06/15 07:49:47;;;;;;;5.05;1.15;;;29.10;69.00;;;-145.59;100.00;63944.34;5092125;28;20051;-74
2021/06/15 07:52:13;;;;;;;6.78;1.73;;;29.20;68.80;;;-145.59;100.00;63944.34;5075214;28;20109;-74
2021/06/15 07:54:41;;;;;;;6.85;2.10;;;29.60;68.00;;;-145.59;100.00;63944.34;5092160;28;20044;-71
2021/06/15 07:57:09;;;;;;;6.32;1.30;;;29.80;66.90;;;-145.59;100.00;63944.34;5076761;28;20410;-73
2021/06/15 07:59:35;;;;;;;4.55;1.40;;;30.10;66.70;;;-145.59;100.00;63944.34;5094014;28;20036;-73
2021/06/15 08:02:01;;;;;;;5.03;1.38;;;30.70;65.90;;;-145.59;100.00;63944.34;5092582;28;20107;-74
2021/06/15 08:04:28;;;;;;;3.92;1.65;;;31.10;65.20;;;-145.59;100.00;63944.34;5093299;28;20036;-74
2021/06/15 08:06:54;;;;;;;5.72;1.63;;;31.70;63.40;;;-145.59;100.00;63944.34;5093145;28;20022;-71
2021/06/15 08:09:20;;;;;;;4.45;1.20;;;32.20;62.90;;;-145.59;100.00;63944.34;5091917;28;20043;-73
2021/06/15 08:11:46;;;;;;;5.88;1.98;;;32.20;62.70;;;-145.59;100.00;63944.34;5074907;28;20037;-73
2021/06/15 08:14:12;;;;;;;4.05;1.42;;;32.50;62.30;;;-145.59;100.00;63944.34;5091994;28;20043;-71
2021/06/15 08:16:38;;;;;;;7.65;1.55;;;32.60;61.80;;;-145.59;100.00;63944.34;5092962;28;20447;-69
2021/06/15 08:19:04;;;;;;;3.85;1.10;;;32.40;60.90;;;-145.59;100.00;63944.34;5074908;28;20031;-71
2021/06/15 08:21:31;;;;;;;5.05;1.40;;;32.40;61.10;;;-145.59;100.00;63944.34;5061492;28;20025;-68
2021/06/15 08:23:57;;;;;;;5.43;1.60;;;31.90;61.10;;;-145.59;100.00;63944.34;5078794;28;20417;-67
2021/06/15 08:26:22;;;;;;;4.05;1.38;;;31.70;61.90;;;-145.59;100.00;63944.34;5078445;28;20024;-70
2021/06/15 08:28:48;;;;;;;5.55;1.52;;;31.90;61.40;;;-145.59;100.00;63944.34;5095662;28;20422;-69
2021/06/15 08:31:14;;;;;;;8.77;1.70;;;32.80;61.10;;;-145.59;100.00;63944.34;5095274;28;20084;-70
2021/06/15 08:33:40;;;;;;;4.57;1.40;;;33.60;59.40;;;-145.59;100.00;63944.34;5095451;28;20035;-71
2021/06/15 08:36:06;;;;;;;8.15;1.98;;;33.70;58.50;;;-145.59;100.00;63944.34;5096682;28;20032;-71
2021/06/15 08:38:33;;;;;;;3.83;1.33;;;33.00;58.50;;;-145.59;100.00;63944.34;5078274;28;20025;-68
2021/06/15 08:40:59;;;;;;;6.35;1.23;;;31.60;60.30;;;-145.59;100.00;63944.34;5096508;28;20498;-70
2021/06/15 08:43:25;;;;;;;4.90;1.40;;;30.90;61.60;;;-145.59;100.00;63944.34;5098510;28;20089;-70
2021/06/15 08:45:51;;;;;;;3.47;1.20;;;31.10;61.10;;;-145.59;100.00;63944.34;5078044;28;20067;-71
2021/06/15 08:48:17;;;;;;;5.45;1.50;;;31.10;60.80;;;-145.59;100.00;63944.34;5096068;28;20064;-70
2021/06/15 08:50:44;;;;;;;7.78;1.20;;;31.60;60.20;;;-145.59;100.00;63944.34;5094770;28;20032;-70
2021/06/15 08:53:11;;;;;;;4.45;1.15;;;32.80;58.20;;;-145.59;100.00;63944.34;5078482;28;20516;-71
2021/06/15 08:55:38;;;;;;;5.30;1.40;;;33.70;55.90;;;-145.59;100.00;63944.34;5111687;28;20524;-70
2021/06/15 08:58:25;;;;;;;5.38;1.25;;;34.10;56.20;;;-145.59;100.00;63944.34;5094273;28;20509;-68
2021/06/15 09:00:51;;;;;;;4.78;1.10;;;34.40;55.90;;;-145.59;100.00;63944.34;5096001;28;20490;-71
2021/06/15 09:03:17;;;;;;;5.65;1.38;;;35.40;55.60;;;-145.59;100.00;63944.34;5077844;28;20040;-71
2021/06/15 09:05:43;;;;;;;4.78;1.60;;;36.10;52.70;;;-145.59;100.00;63944.34;5078089;28;20024;-70
2021/06/15 09:08:12;;;;;;;4.18;1.75;;;36.50;51.70;;;-145.59;100.00;63944.34;5094608;28;20058;-72
2021/06/15 09:10:39;;;;;;;3.40;1.35;;;36.30;52.00;;;-145.59;100.00;63944.34;5095758;28;20032;-69
2021/06/15 09:13:07;;;;;;;7.28;1.42;;;35.50;52.60;;;-145.59;100.00;63944.34;5095494;28;20035;-71
2021/06/15 09:15:33;;;;;;;5.18;1.13;;;35.60;52.70;;;-145.59;100.00;63944.34;5077786;28;20034;-71
2021/06/15 09:18:00;;;;;;;7.25;1.35;;;36.30;52.30;;;-145.59;100.00;63944.34;5111403;28;20390;-71
2021/06/15 09:20:30;;;;;;;3.47;1.25;;;37.00;51.70;;;-145.59;100.00;63944.34;5094420;28;20032;-72
2021/06/15 09:23:15;;;;;;;3.97;1.30;;;36.80;51.30;;;-145.59;100.00;63944.34;5111419;28;20028;-70
2021/06/15 09:25:48;;;;;;;3.40;1.35;;;37.10;51.00;;;-145.59;100.00;63944.34;5078194;28;20036;-73
2021/06/15 09:28:21;;;;;;;;;;;36.90;50.90;;;-145.59;100.00;63944.34;5112494;28;20157;-71
2021/06/15 09:31:06;;;;;;;;;;;36.90;50.70;;;-145.59;100.00;63944.34;5095859;28;19916;-71
2021/06/15 09:33:44;;;;;;;;;;;37.10;50.40;;;-145.59;100.00;63944.34;5111080;28;20371;-70
2021/06/15 09:36:13;;;;;;;;;;;36.90;50.20;;;-145.59;100.00;63944.34;5094521;28;19919;-72
2021/06/15 09:38:57;;;;;;;;;;;37.20;50.40;;;-145.59;100.00;63944.34;5095626;28;19915;-72
2021/06/15 09:41:34;;;;;;;;;;;37.10;50.00;;;-145.59;100.00;63944.34;5095079;28;20283;-73
2021/06/15 09:44:21;;;;;;;;;;;37.30;49.90;;;-145.59;100.00;63944.34;5094961;28;19946;-76
2021/06/15 09:46:49;;;;;;;;;;;35.90;50.50;;;-145.59;100.00;63944.34;5096016;28;20266;-75
2021/06/15 09:49:37;;;;;;;;;;;35.60;50.80;;;-145.59;100.00;63944.34;5096550;28;19916;-72
2021/06/15 09:52:15;;;;;;;;;;;36.00;50.50;;;-145.59;100.00;63944.34;5096023;28;19908;-70
2021/06/15 09:54:43;;;;;;;;;;;36.40;50.30;;;-145.59;100.00;63944.34;5095385;28;20016;-72
2021/06/15 09:57:10;;;;;;;;;;;36.70;50.00;;;-145.59;100.00;63944.34;5080175;28;19924;-73
2021/06/15 09:59:37;;;;;;;;;;;36.70;49.40;;;-145.59;100.00;63944.34;5080971;28;19915;-72
2021/06/15 10:02:03;;;;;;;;;;;37.10;49.10;;;-145.59;100.00;63944.34;5116640;28;19946;-73
2021/06/15 10:04:28;;;;;;;;;;;37.30;48.90;;;-145.59;100.00;63944.34;5098325;28;19916;-73
2021/06/15 10:06:59;;;;;;;;;;;36.80;49.40;;;-145.59;100.00;63944.34;5098883;28;20366;-77
2021/06/15 10:09:33;;;;;;;;;;;36.30;49.90;;;-145.59;100.00;63944.34;5084860;28;19984;-74
2021/06/15 10:12:06;;;;;;;;;;;35.00;50.80;;;-145.59;100.00;63944.34;5084030;28;20041;-74
2021/06/15 10:14:34;;;;;;;;;;;34.90;51.30;;;-145.59;100.00;63944.34;5117182;28;19915;-75
2021/06/15 10:17:00;;;;;;;;;;;35.20;50.90;;;-145.59;100.00;63944.34;5099760;28;20286;-74
2021/06/15 10:19:26;;;;;;;;;;;34.60;50.90;;;-145.59;100.00;63944.34;5099625;28;19912;-76
2021/06/15 10:21:54;;;;;;;;;;;35.00;50.70;;;-145.59;100.00;63944.34;5098394;28;20334;-74
2021/06/15 10:24:24;;;;;;;;;;;35.90;50.20;;;-145.59;100.00;63944.34;5081119;28;19912;-74